createdAt,value
2023-04-17T00:01:24.210Z,67.35
2023-04-17T00:04:26.754Z,62.25
2023-04-17T00:07:28.967Z,61.83
2023-04-17T00:10:30.848Z,65.10
2023-04-17T00:13:32.390Z,77.45
2023-04-17T00:16:34.042Z,69.22
2023-04-17T00:19:35.715Z,67.40
2023-04-17T00:22:38.330Z,74.75
2023-04-17T00:25:39.876Z,65.75
2023-04-17T00:28:41.521Z,71.10
2023-04-17T00:31:43.490Z,73.50
2023-04-17T00:34:45.092Z,67.68
2023-04-17T00:37:48.253Z,67.57
2023-04-17T00:40:51.502Z,64.00
2023-04-17T00:43:53.040Z,67.78
2023-04-17T00:46:55.661Z,71.90
2023-04-17T00:49:57.669Z,74.50
2023-04-17T00:53:00.578Z,71.05
2023-04-17T00:56:06.529Z,70.28
2023-04-17T00:59:12.890Z,71.72
2023-04-17T01:02:16.666Z,67.82
2023-04-17T01:05:18.313Z,70.22
2023-04-17T01:08:19.964Z,75.57
2023-04-17T01:11:22.024Z,70.57
2023-04-17T01:14:23.655Z,80.47
2023-04-17T01:17:26.599Z,74.82
2023-04-17T01:20:30.054Z,61.20
2023-04-17T01:23:51.884Z,68.30
2023-04-17T01:26:53.596Z,75.72
2023-04-17T01:29:55.154Z,74.30
2023-04-17T01:32:57.044Z,78.05
2023-04-17T01:35:58.815Z,73.70
2023-04-17T01:39:00.638Z,75.10
2023-04-17T01:42:02.222Z,80.47
2023-04-17T01:45:05.423Z,69.53
2023-04-17T01:48:06.975Z,72.43
2023-04-17T01:51:08.623Z,75.70
2023-04-17T01:54:10.548Z,69.07
2023-04-17T01:57:15.397Z,85.05
2023-04-17T02:00:17.249Z,73.70
2023-04-17T02:03:19.180Z,75.28
2023-04-17T02:06:20.920Z,72.75
2023-04-17T02:09:22.660Z,78.70
2023-04-17T02:12:24.283Z,73.68
2023-04-17T02:15:26.088Z,68.85
2023-04-17T02:18:28.261Z,73.85
2023-04-17T02:21:29.812Z,74.57
2023-04-17T02:24:31.727Z,72.40
2023-04-17T02:27:33.271Z,65.97
2023-04-17T02:30:34.839Z,85.30
2023-04-17T02:33:36.719Z,84.65
2023-04-17T02:36:38.319Z,93.93
2023-04-17T02:39:39.912Z,81.18
2023-04-17T02:42:41.719Z,89.07
2023-04-17T02:45:43.253Z,76.40
2023-04-17T02:48:44.883Z,72.22
2023-04-17T02:51:46.450Z,77.13
2023-04-17T02:54:47.993Z,75.00
2023-04-17T02:57:49.552Z,73.75
2023-04-17T03:00:51.221Z,79.05
2023-04-17T03:03:53.439Z,78.80
2023-04-17T03:06:55.150Z,67.47
2023-04-17T03:09:57.444Z,69.32
2023-04-17T03:12:59.065Z,73.43
2023-04-17T03:16:01.397Z,62.40
2023-04-17T03:19:03.311Z,56.20
2023-04-17T03:22:04.870Z,61.80
2023-04-17T03:25:06.783Z,57.42
2023-04-17T03:28:08.338Z,63.03
2023-04-17T03:31:09.886Z,59.15
2023-04-17T03:34:11.524Z,56.25
2023-04-17T03:37:13.101Z,57.80
2023-04-17T03:40:14.679Z,63.50
2023-04-17T03:43:16.277Z,56.40
2023-04-17T03:46:17.945Z,61.35
2023-04-17T03:49:19.589Z,58.22
2023-04-17T03:52:21.427Z,62.85
2023-04-17T03:55:23.047Z,58.67
2023-04-17T03:58:24.871Z,69.65
2023-04-17T04:01:28.324Z,65.55
2023-04-17T04:04:30.474Z,59.85
2023-04-17T04:07:32.218Z,61.10
2023-04-17T04:10:33.835Z,62.03
2023-04-17T04:13:36.323Z,66.13
2023-04-17T04:16:37.871Z,65.78
2023-04-17T04:19:39.737Z,73.95
2023-04-17T04:22:41.569Z,68.45
2023-04-17T04:25:43.522Z,74.57
2023-04-17T04:28:45.282Z,70.20
2023-04-17T04:31:50.837Z,78.40
2023-04-17T04:34:52.660Z,80.45
2023-04-17T04:37:54.670Z,75.28
2023-04-17T04:41:06.575Z,77.50
2023-04-17T04:44:08.245Z,75.00
2023-04-17T04:47:09.759Z,88.18
2023-04-17T04:50:11.322Z,75.82
2023-04-17T04:53:12.883Z,78.40
2023-04-17T04:56:15.583Z,73.65
2023-04-17T04:59:17.103Z,72.32
2023-04-17T05:02:18.890Z,74.72
2023-04-17T05:05:20.656Z,73.93
2023-04-17T05:08:22.404Z,72.60
2023-04-17T05:11:23.944Z,73.32
2023-04-17T05:14:25.977Z,75.15
2023-04-17T05:17:27.610Z,71.25
2023-04-17T05:20:29.233Z,66.85
2023-04-17T05:23:30.789Z,70.10
2023-04-17T05:26:32.618Z,78.05
2023-04-17T05:29:34.246Z,77.88
2023-04-17T05:32:35.937Z,78.03
2023-04-17T05:35:37.505Z,74.50
2023-04-17T05:38:39.135Z,76.07
2023-04-17T05:41:40.742Z,75.20
2023-04-17T05:44:42.313Z,69.05
2023-04-17T05:47:44.408Z,67.93
2023-04-17T05:50:46.477Z,60.70
2023-04-17T05:53:48.944Z,61.80
2023-04-17T05:56:51.831Z,59.83
2023-04-17T05:59:53.377Z,63.55
2023-04-17T06:02:55.188Z,61.72
2023-04-17T06:05:57.248Z,54.50
2023-04-17T06:08:59.021Z,58.75
2023-04-17T06:12:00.596Z,71.45
2023-04-17T06:15:02.296Z,61.50
2023-04-17T06:18:04.316Z,60.85
2023-04-17T06:21:07.566Z,68.53
2023-04-17T06:24:09.129Z,65.80
2023-04-17T06:27:10.777Z,61.17
2023-04-17T06:30:12.710Z,63.63
2023-04-17T06:33:14.447Z,63.10
2023-04-17T06:36:16.058Z,61.58
2023-04-17T06:39:17.783Z,65.53
2023-04-17T06:42:20.454Z,63.38
2023-04-17T06:45:22.082Z,59.88
2023-04-17T06:48:23.868Z,59.78
2023-04-17T06:51:27.562Z,65.45
2023-04-17T06:54:29.326Z,64.47
2023-04-17T06:57:30.877Z,70.95
2023-04-17T07:00:32.442Z,69.15
2023-04-17T07:03:34.147Z,66.82
2023-04-17T07:06:36.625Z,70.38
2023-04-17T07:09:38.353Z,61.03
2023-04-17T07:12:40.132Z,62.22
2023-04-17T07:15:41.886Z,65.82
2023-04-17T07:18:43.525Z,55.47
2023-04-17T07:21:45.096Z,62.45
2023-04-17T07:24:46.660Z,70.53
2023-04-17T07:27:48.288Z,62.70
2023-04-17T07:30:49.836Z,64.22
2023-04-17T07:33:51.378Z,71.10
2023-04-17T07:36:53.351Z,64.05
2023-04-17T07:39:54.920Z,66.43
2023-04-17T07:42:56.718Z,67.47
2023-04-17T07:45:58.817Z,62.25
2023-04-17T07:49:00.501Z,61.38
2023-04-17T07:52:02.245Z,62.42
2023-04-17T07:55:04.112Z,57.38
2023-04-17T07:58:06.384Z,61.20
2023-04-17T08:01:08.206Z,52.30
2023-04-17T08:04:10.293Z,68.10
2023-04-17T08:07:13.007Z,62.22
2023-04-17T08:10:14.664Z,63.33
2023-04-17T08:13:16.630Z,61.90
2023-04-17T08:16:18.234Z,64.18
2023-04-17T08:19:19.904Z,61.33
2023-04-17T08:22:23.999Z,59.35
2023-04-17T08:25:25.705Z,59.47
2023-04-17T08:28:27.710Z,60.85
2023-04-17T08:31:31.469Z,62.38
2023-04-17T08:34:33.174Z,63.95
2023-04-17T08:37:36.014Z,61.90
2023-04-17T08:40:41.888Z,60.88
2023-04-17T08:43:48.466Z,61.38
2023-04-17T08:46:51.107Z,65.10
2023-04-17T08:49:52.683Z,65.60
2023-04-17T08:52:54.240Z,62.88
2023-04-17T08:55:57.567Z,63.30
2023-04-17T08:58:59.253Z,67.28
2023-04-17T09:02:05.582Z,57.00
2023-04-17T09:05:19.271Z,78.32
2023-04-17T09:08:23.982Z,58.00
2023-04-17T09:11:26.574Z,52.83
2023-04-17T09:14:31.477Z,57.35
2023-04-17T09:17:34.778Z,52.47
2023-04-17T09:20:49.517Z,54.35
2023-04-17T09:23:52.557Z,52.78
2023-04-17T09:26:54.138Z,46.33
2023-04-17T09:30:03.651Z,47.00
2023-04-17T09:33:07.186Z,48.50
2023-04-17T09:36:32.068Z,46.25
2023-04-17T09:39:34.726Z,44.10
2023-04-17T09:42:54.020Z,41.63
2023-04-17T09:45:55.583Z,37.35
2023-04-17T09:49:00.778Z,33.60
2023-04-17T09:52:03.664Z,31.33
2023-04-17T09:55:07.534Z,32.42
2023-04-17T09:58:09.589Z,28.35
2023-04-17T10:01:13.100Z,35.38
2023-04-17T10:04:15.468Z,29.65
2023-04-17T10:07:18.591Z,32.08
2023-04-17T10:10:36.471Z,26.60
2023-04-17T10:13:40.475Z,26.48
2023-04-17T10:16:44.979Z,26.50
2023-04-17T10:19:46.853Z,26.42
2023-04-17T10:22:54.434Z,24.95
2023-04-17T10:26:27.907Z,25.90
2023-04-17T10:29:58.788Z,26.17
2023-04-17T10:33:12.814Z,32.40
2023-04-17T10:36:40.392Z,28.25
2023-04-17T10:39:59.673Z,27.83
2023-04-17T10:43:13.519Z,32.05
2023-04-17T10:46:17.510Z,29.90
2023-04-17T10:49:21.492Z,24.98
2023-04-17T10:52:38.801Z,31.00
2023-04-17T10:55:50.304Z,25.15
2023-04-17T10:58:59.879Z,23.45
2023-04-17T11:02:04.237Z,21.88
2023-04-17T11:05:07.694Z,19.70
2023-04-17T11:08:10.918Z,17.38
2023-04-17T11:11:12.505Z,17.75
2023-04-17T11:14:22.527Z,17.98
2023-04-17T11:17:24.209Z,15.18
2023-04-17T11:20:29.054Z,17.83
2023-04-17T11:23:34.421Z,18.15
2023-04-17T11:26:46.584Z,22.48
2023-04-17T11:29:48.132Z,19.88
2023-04-17T11:32:49.805Z,17.73
2023-04-17T11:35:52.396Z,19.13
2023-04-17T11:38:56.842Z,25.95
2023-04-17T11:41:58.910Z,17.15
2023-04-17T11:45:06.803Z,19.55
2023-04-17T11:48:13.043Z,17.00
2023-04-17T11:51:18.202Z,18.42
2023-04-17T11:54:31.100Z,19.27
2023-04-17T11:57:43.618Z,21.27
2023-04-17T12:00:48.287Z,17.38
2023-04-17T12:03:50.382Z,17.10
2023-04-17T12:06:56.503Z,19.73
2023-04-17T12:09:58.920Z,16.23
2023-04-17T12:13:00.488Z,22.17
2023-04-17T12:16:02.295Z,18.17
2023-04-17T12:19:04.088Z,18.15
2023-04-17T12:22:06.122Z,22.92
2023-04-17T12:25:08.151Z,18.77
2023-04-17T12:28:09.710Z,19.13
2023-04-17T12:31:11.351Z,20.85
2023-04-17T12:34:13.187Z,16.40
2023-04-17T12:37:14.912Z,18.17
2023-04-17T12:40:23.811Z,18.98
2023-04-17T12:43:26.148Z,15.63
2023-04-17T12:46:27.978Z,17.33
2023-04-17T12:49:29.822Z,14.55
2023-04-17T12:52:31.404Z,15.18
2023-04-17T12:55:33.145Z,27.15
2023-04-17T12:58:34.798Z,17.45
2023-04-17T13:01:36.630Z,17.23
2023-04-17T13:04:39.503Z,19.88
2023-04-17T13:07:41.370Z,18.92
2023-04-17T13:10:43.089Z,18.25
2023-04-17T13:13:45.026Z,17.15
2023-04-17T13:16:48.625Z,17.88
2023-04-17T13:19:50.319Z,22.50
2023-04-17T13:22:54.773Z,21.33
2023-04-17T13:25:56.386Z,22.08
2023-04-17T13:28:57.906Z,19.98
2023-04-17T13:32:02.769Z,18.40
2023-04-17T13:35:05.080Z,19.10
2023-04-17T13:38:06.846Z,20.75
2023-04-17T13:41:08.432Z,21.63
2023-04-17T13:44:10.035Z,20.08
2023-04-17T13:47:15.306Z,18.48
2023-04-17T13:50:17.006Z,20.83
2023-04-17T13:53:19.711Z,15.90
2023-04-17T13:56:23.341Z,20.88
2023-04-17T13:59:25.283Z,15.73
2023-04-17T14:02:26.937Z,16.10
2023-04-17T14:05:28.888Z,18.58
2023-04-17T14:08:30.534Z,16.52
2023-04-17T14:11:32.178Z,20.52
2023-04-17T14:14:33.758Z,20.45
2023-04-17T14:17:38.106Z,20.38
2023-04-17T14:20:39.830Z,23.45
2023-04-17T14:23:41.739Z,20.15
2023-04-17T14:26:43.486Z,19.88
2023-04-17T14:29:45.161Z,18.00
2023-04-17T14:32:47.112Z,19.67
2023-04-17T14:35:48.929Z,17.08
2023-04-17T14:38:52.528Z,16.52
2023-04-17T14:41:54.078Z,17.52
2023-04-17T14:44:55.619Z,13.43
2023-04-17T14:47:57.812Z,16.08
2023-04-17T14:51:00.638Z,21.02
2023-04-17T14:54:02.324Z,14.75
2023-04-17T14:57:04.036Z,19.15
2023-04-17T15:00:07.708Z,17.48
2023-04-17T15:03:09.476Z,20.67
2023-04-17T15:06:11.436Z,14.73
2023-04-17T15:09:13.406Z,15.63
2023-04-17T15:12:15.226Z,17.13
2023-04-17T15:15:16.943Z,19.45
2023-04-17T15:18:18.503Z,18.17
2023-04-17T15:21:20.111Z,16.30
2023-04-17T15:24:21.755Z,20.17
2023-04-17T15:27:23.599Z,17.48
2023-04-17T15:30:25.374Z,16.80
2023-04-17T15:33:26.906Z,16.45
2023-04-17T15:36:33.660Z,16.08
2023-04-17T15:39:39.398Z,21.08
2023-04-17T15:42:41.186Z,15.30
2023-04-17T15:45:43.377Z,23.17
2023-04-17T15:48:48.277Z,19.77
2023-04-17T15:51:56.657Z,22.88
2023-04-17T15:54:58.478Z,20.52
2023-04-17T15:58:00.196Z,17.70
2023-04-17T16:01:01.913Z,18.40
2023-04-17T16:04:03.785Z,19.35
2023-04-17T16:07:06.100Z,16.27
2023-04-17T16:10:14.514Z,18.48
2023-04-17T16:13:16.638Z,20.92
2023-04-17T16:16:18.236Z,15.68
2023-04-17T16:19:20.580Z,18.45
2023-04-17T16:22:22.163Z,18.30
2023-04-17T16:25:23.853Z,16.55
2023-04-17T16:28:25.454Z,13.98
2023-04-17T16:31:27.822Z,16.63
2023-04-17T16:34:29.455Z,20.95
2023-04-17T16:37:31.415Z,16.85
2023-04-17T16:40:33.074Z,13.43
2023-04-17T16:43:34.619Z,17.25
2023-04-17T16:46:52.218Z,18.80
2023-04-17T16:49:58.460Z,18.00
2023-04-17T16:53:00.015Z,19.80
2023-04-17T16:56:01.723Z,18.23
2023-04-17T16:59:04.338Z,20.98
2023-04-17T17:02:09.036Z,19.08
2023-04-17T17:05:10.606Z,19.10
2023-04-17T17:08:13.689Z,15.15
2023-04-17T17:11:19.436Z,19.90
2023-04-17T17:14:21.144Z,20.80
2023-04-17T17:17:22.980Z,17.38
2023-04-17T17:20:24.859Z,18.42
2023-04-17T17:23:26.842Z,17.45
2023-04-17T17:26:28.528Z,22.45
2023-04-17T17:29:30.145Z,15.18
2023-04-17T17:32:31.808Z,21.85
2023-04-17T17:35:33.810Z,16.45
2023-04-17T17:38:35.442Z,14.50
2023-04-17T17:41:37.001Z,21.75
2023-04-17T17:44:38.669Z,20.30
2023-04-17T17:47:40.450Z,21.50
2023-04-17T17:50:42.985Z,20.45
2023-04-17T17:53:44.535Z,18.38
2023-04-17T17:56:46.165Z,18.60
2023-04-17T17:59:47.753Z,18.02
2023-04-17T18:02:49.580Z,17.30
2023-04-17T18:05:52.518Z,20.42
2023-04-17T18:08:54.210Z,16.20
2023-04-17T18:11:55.797Z,17.48
2023-04-17T18:14:57.495Z,17.30
2023-04-17T18:17:59.155Z,24.88
2023-04-17T18:21:05.877Z,23.33
2023-04-17T18:24:08.271Z,19.08
2023-04-17T18:27:09.847Z,21.08
2023-04-17T18:30:12.122Z,19.95
2023-04-17T18:33:13.665Z,21.98
2023-04-17T18:36:15.409Z,24.00
2023-04-17T18:39:19.709Z,23.48
2023-04-17T18:42:21.906Z,20.52
2023-04-17T18:45:24.354Z,24.45
2023-04-17T18:48:26.107Z,27.05
2023-04-17T18:51:27.717Z,20.73
2023-04-17T18:54:29.703Z,25.50
2023-04-17T18:57:31.581Z,26.65
2023-04-17T19:00:33.198Z,28.33
2023-04-17T19:03:34.828Z,23.98
2023-04-17T19:06:36.620Z,31.17
2023-04-17T19:09:38.384Z,28.67
2023-04-17T19:12:42.398Z,23.38
2023-04-17T19:15:43.942Z,32.03
2023-04-17T19:18:45.598Z,42.47
2023-04-17T19:21:47.550Z,42.50
2023-04-17T19:24:50.953Z,38.50
2023-04-17T19:27:52.544Z,31.77
2023-04-17T19:30:55.907Z,35.25
2023-04-17T19:33:57.540Z,32.47
2023-04-17T19:36:59.117Z,27.90
2023-04-17T19:40:02.544Z,31.77
2023-04-17T19:43:06.366Z,31.65
2023-04-17T19:46:09.263Z,30.88
2023-04-17T19:49:15.580Z,35.22
2023-04-17T19:52:17.233Z,29.60
2023-04-17T19:55:19.345Z,34.28
2023-04-17T19:58:21.068Z,29.85
2023-04-17T20:01:22.703Z,27.30
2023-04-17T20:04:24.588Z,27.70
2023-04-17T20:07:26.825Z,22.75
2023-04-17T20:10:28.793Z,31.65
2023-04-17T20:13:30.414Z,25.83
2023-04-17T20:16:32.146Z,25.02
2023-04-17T20:19:33.762Z,22.73
2023-04-17T20:22:35.797Z,22.20
2023-04-17T20:25:37.365Z,27.70
2023-04-17T20:28:38.942Z,25.38
2023-04-17T20:31:40.542Z,25.48
2023-04-17T20:34:42.165Z,23.92
2023-04-17T20:37:44.539Z,30.05
2023-04-17T20:40:46.217Z,22.48
2023-04-17T20:43:59.414Z,21.67
2023-04-17T20:47:04.007Z,23.48
2023-04-17T20:50:09.376Z,24.35
2023-04-17T20:53:11.056Z,24.95
2023-04-17T20:56:12.651Z,22.33
2023-04-17T20:59:16.660Z,26.35
2023-04-17T21:02:18.380Z,24.23
2023-04-17T21:05:20.221Z,26.02
2023-04-17T21:08:21.922Z,26.27
2023-04-17T21:11:23.474Z,25.33
2023-04-17T21:14:25.196Z,27.23
2023-04-17T21:17:26.755Z,26.65
2023-04-17T21:20:28.422Z,22.02
2023-04-17T21:23:31.347Z,19.40
2023-04-17T21:26:36.214Z,26.35
2023-04-17T21:29:37.841Z,26.23
2023-04-17T21:32:40.587Z,27.98
2023-04-17T21:35:42.286Z,24.05
2023-04-17T21:38:45.018Z,26.60
2023-04-17T21:41:46.602Z,21.83
2023-04-17T21:44:48.177Z,25.10
2023-04-17T21:47:49.824Z,26.80
2023-04-17T21:50:51.569Z,20.40
2023-04-17T21:53:53.120Z,25.90
2023-04-17T21:56:54.721Z,20.67
2023-04-17T21:59:56.305Z,20.08
2023-04-17T22:02:58.339Z,21.98
2023-04-17T22:06:00.267Z,26.52
2023-04-17T22:09:02.018Z,20.38
2023-04-17T22:12:13.604Z,25.92
2023-04-17T22:15:15.154Z,22.67
2023-04-17T22:18:20.714Z,24.15
2023-04-17T22:21:22.299Z,19.83
2023-04-17T22:24:24.272Z,21.50
2023-04-17T22:27:25.872Z,22.50
2023-04-17T22:30:27.451Z,18.48
2023-04-17T22:33:28.979Z,26.00
2023-04-17T22:36:31.039Z,22.00
2023-04-17T22:39:32.653Z,23.65
2023-04-17T22:42:34.522Z,19.70
2023-04-17T22:45:38.217Z,20.95
2023-04-17T22:48:40.588Z,21.38
2023-04-17T22:51:43.122Z,19.25
2023-04-17T22:54:44.662Z,21.30
2023-04-17T22:57:46.378Z,19.45
2023-04-17T23:00:48.023Z,18.98
2023-04-17T23:03:49.571Z,17.45
2023-04-17T23:06:51.224Z,18.33
2023-04-17T23:09:52.873Z,18.05
2023-04-17T23:12:54.391Z,19.63
2023-04-17T23:15:56.121Z,19.88
2023-04-17T23:18:57.994Z,18.60
2023-04-17T23:22:01.257Z,16.40
2023-04-17T23:25:03.078Z,28.55
2023-04-17T23:28:04.902Z,16.80
2023-04-17T23:31:06.751Z,20.90
2023-04-17T23:34:08.469Z,21.15
2023-04-17T23:37:10.055Z,21.88
2023-04-17T23:40:12.037Z,20.77
2023-04-17T23:43:13.777Z,17.65
2023-04-17T23:46:15.392Z,25.85
2023-04-17T23:49:17.045Z,17.77
2023-04-17T23:52:18.935Z,22.30
2023-04-17T23:55:22.257Z,16.63
2023-04-17T23:58:23.918Z,16.55
